Time;durP1;ratioP1;P1;durP2;ratioP2;P2;SDS_P1;SDS_P2;PMS_P1;PMS_P2;Temp;Humidity;BMP_temperature;BMP_pressure;BME280_temperature;BME280_humidity;BME280_pressure;Samples;Min_cycle;Max_cycle;Signal;HPM_P1;HPM_P2
2023/08/04 00:03:51;;;;;;;3.55;2.10;;;13.60;99.90;;;14.33;100.00;97420.84;10412406;28;20728;-68
2023/08/04 00:08:54;;;;;;;3.65;2.20;;;13.60;99.90;;;14.42;100.00;97423.75;10408613;28;20221;-68
2023/08/04 00:13:57;;;;;;;2.97;1.75;;;13.60;99.90;;;14.41;100.00;97410.81;10412057;28;20312;-68
2023/08/04 00:19:02;;;;;;;2.55;1.88;;;13.60;99.90;;;14.15;100.00;97409.91;10417917;28;20312;-67
2023/08/04 00:24:05;;;;;;;2.58;1.88;;;13.40;99.90;;;14.16;100.00;97404.84;10410839;28;20225;-68
2023/08/04 00:29:08;;;;;;;1.63;1.48;;;13.40;99.90;;;14.20;100.00;97403.25;10413670;28;20610;-69
2023/08/04 00:34:13;;;;;;;2.25;1.92;;;13.40;99.90;;;14.11;100.00;97408.06;10412868;28;20611;-67
2023/08/04 00:39:16;;;;;;;4.40;1.85;;;13.30;99.90;;;14.04;100.00;97401.81;10414278;28;20233;-69
2023/08/04 00:44:19;;;;;;;1.85;1.75;;;13.20;99.90;;;13.95;100.00;97410.06;10405861;28;20233;-69
2023/08/04 00:49:24;;;;;;;1.90;1.80;;;13.10;99.90;;;13.93;100.00;97408.25;10415717;28;20230;-69
2023/08/04 00:54:27;;;;;;;3.30;1.75;;;13.10;99.90;;;13.84;100.00;97403.66;10404174;28;20618;-67
2023/08/04 00:59:30;;;;;;;3.25;2.00;;;13.10;99.90;;;13.78;100.00;97413.69;10423039;28;20255;-67
2023/08/04 01:04:35;;;;;;;2.30;1.98;;;13.00;99.90;;;13.79;100.00;97407.75;10406212;28;20222;-68
2023/08/04 01:09:51;;;;;;;3.10;2.13;;;13.10;99.90;;;13.87;100.00;97410.59;10406086;28;20674;-68
2023/08/04 01:14:58;;;;;;;2.15;1.90;;;13.10;99.90;;;13.85;100.00;97415.69;10411716;28;20320;-67
2023/08/04 01:20:04;;;;;;;2.38;1.85;;;13.00;99.90;;;13.82;100.00;97414.69;10410091;28;20725;-69
2023/08/04 01:25:09;;;;;;;2.55;1.90;;;13.00;99.90;;;13.74;100.00;97406.72;10414320;28;20348;-67
2023/08/04 01:30:18;;;;;;;3.05;2.00;;;12.90;99.90;;;13.76;100.00;97402.50;10404123;28;20236;-69
2023/08/04 01:35:21;;;;;;;2.55;1.95;;;12.90;99.90;;;13.74;100.00;97401.59;10402993;28;20244;-69
2023/08/04 01:40:25;;;;;;;1.95;1.77;;;12.90;99.90;;;13.68;100.00;97402.22;10416506;28;20252;-67
2023/08/04 01:45:29;;;;;;;2.20;2.00;;;12.80;99.90;;;13.54;100.00;97403.41;10402702;28;20241;-68
2023/08/04 01:50:32;;;;;;;3.88;2.05;;;12.70;99.90;;;13.55;100.00;97399.13;10414143;28;20221;-69
2023/08/04 01:55:36;;;;;;;2.30;2.03;;;12.70;99.90;;;13.43;100.00;97409.81;10407888;28;20238;-68
2023/08/04 02:00:39;;;;;;;2.28;2.08;;;12.60;99.90;;;13.43;100.00;97410.69;10401848;28;20233;-68
2023/08/04 02:05:46;;;;;;;2.42;1.80;;;12.60;99.90;;;13.27;100.00;97409.19;10412988;28;20775;-68
2023/08/04 02:10:51;;;;;;;2.22;2.00;;;12.50;99.90;;;13.36;100.00;97410.38;10408695;28;20720;-68
2023/08/04 02:15:54;;;;;;;2.83;2.15;;;12.60;99.90;;;13.39;100.00;97405.34;10408331;28;20696;-69
2023/08/04 02:20:57;;;;;;;2.70;1.95;;;12.60;99.90;;;13.51;100.00;97399.03;10403688;28;20324;-68
2023/08/04 02:26:02;;;;;;;2.30;2.10;;;12.80;99.90;;;13.63;100.00;97402.88;10408249;28;21264;-67
2023/08/04 02:31:05;;;;;;;2.22;1.85;;;12.90;99.90;;;13.63;100.00;97413.16;10405858;28;20685;-68
2023/08/04 02:36:08;;;;;;;2.10;1.90;;;12.80;99.90;;;13.55;100.00;97417.09;10411369;28;20234;-68
2023/08/04 02:41:13;;;;;;;2.17;1.98;;;12.70;99.90;;;13.52;100.00;97412.72;10414345;28;20229;-69
2023/08/04 02:46:16;;;;;;;2.10;2.00;;;12.70;99.90;;;13.56;100.00;97417.16;10403602;28;20221;-67
2023/08/04 02:51:19;;;;;;;4.35;1.92;;;12.60;99.90;;;13.40;100.00;97409.69;10407191;28;20249;-69
2023/08/04 02:56:24;;;;;;;2.13;1.85;;;12.40;99.90;;;13.12;100.00;97408.56;10403024;28;20320;-66
2023/08/04 03:01:27;;;;;;;2.08;1.98;;;12.30;99.90;;;13.15;100.00;97407.81;10409094;28;20228;-67
2023/08/04 03:06:30;;;;;;;2.58;2.28;;;12.40;99.90;;;13.29;100.00;97419.53;10403708;28;20227;-67
2023/08/04 03:11:34;;;;;;;2.70;2.17;;;12.50;99.90;;;13.30;100.00;97423.84;10410337;28;20225;-69
2023/08/04 03:16:37;;;;;;;2.20;2.00;;;12.60;99.90;;;13.26;100.00;97415.16;10404834;28;20233;-68
2023/08/04 03:21:41;;;;;;;2.10;2.00;;;12.50;99.90;;;13.43;100.00;97405.53;10404549;28;20240;-69
2023/08/04 03:26:45;;;;;;;2.42;2.20;;;12.60;99.90;;;13.32;100.00;97411.97;10410919;28;20734;-68
2023/08/04 03:31:48;;;;;;;2.10;2.00;;;12.50;99.90;;;13.26;100.00;97409.16;10404040;28;20287;-68
2023/08/04 03:36:52;;;;;;;2.30;1.88;;;12.50;99.90;;;13.18;100.00;97402.81;10410403;28;20604;-67
2023/08/04 03:41:56;;;;;;;2.85;2.17;;;12.30;99.90;;;13.15;100.00;97410.38;10400248;28;20233;-66
2023/08/04 03:46:59;;;;;;;3.13;2.22;;;12.30;99.90;;;13.08;100.00;97411.84;10414926;28;20261;-68
2023/08/04 03:52:03;;;;;;;2.42;2.22;;;12.20;99.90;;;12.96;100.00;97414.81;10405506;28;20225;-70
2023/08/04 03:57:08;;;;;;;2.22;2.10;;;12.10;99.90;;;12.89;100.00;97414.47;10396105;28;20238;-68
2023/08/04 04:02:11;;;;;;;2.10;1.90;;;12.10;99.90;;;12.92;100.00;97415.47;10401530;28;20613;-67
2023/08/04 04:07:14;;;;;;;2.58;2.38;;;12.20;99.90;;;12.90;100.00;97411.97;10400148;28;20225;-67
2023/08/04 04:12:19;;;;;;;2.55;2.35;;;12.20;99.90;;;12.98;100.00;97420.84;10402773;28;20237;-68
2023/08/04 04:17:22;;;;;;;2.45;2.05;;;12.20;99.90;;;12.99;100.00;97421.72;10398484;28;20224;-67
2023/08/04 04:22:26;;;;;;;2.28;2.13;;;12.20;99.90;;;13.03;100.00;97421.03;10398768;28;20241;-68
2023/08/04 04:27:30;;;;;;;3.65;2.35;;;12.20;99.90;;;13.14;100.00;97436.88;10404150;28;22105;-67
2023/08/04 04:32:33;;;;;;;2.30;2.10;;;12.40;99.90;;;13.25;100.00;97435.63;10402923;28;20228;-67
2023/08/04 04:37:36;;;;;;;3.03;2.35;;;12.40;99.90;;;13.20;100.00;97442.25;10402136;28;20744;-67
2023/08/04 04:42:41;;;;;;;3.30;2.15;;;12.40;99.90;;;13.14;100.00;97442.00;10404447;28;20731;-67
2023/08/04 04:47:44;;;;;;;2.70;1.80;;;12.30;99.90;;;13.34;100.00;97446.28;10414090;28;20221;-67
2023/08/04 04:52:47;;;;;;;2.58;2.08;;;12.50;99.90;;;13.35;100.00;97439.44;10411559;28;20245;-66
2023/08/04 04:57:52;;;;;;;3.05;2.30;;;12.60;99.90;;;13.40;100.00;97441.38;10409938;28;20248;-67
2023/08/04 05:02:55;;;;;;;3.40;2.05;;;12.70;99.90;;;13.67;100.00;97435.53;10406642;28;20263;-67
2023/08/04 05:07:58;;;;;;;2.83;2.63;;;13.00;99.90;;;13.92;100.00;97442.47;10406585;28;20241;-66
2023/08/04 05:13:03;;;;;;;3.67;2.70;;;13.30;99.90;;;14.01;100.00;97439.38;10409584;28;20226;-67
2023/08/04 05:18:06;;;;;;;3.38;2.70;;;13.30;99.90;;;14.15;100.00;97443.31;10412364;28;20225;-66
2023/08/04 05:23:09;;;;;;;2.67;2.47;;;13.40;99.90;;;14.34;100.00;97447.44;10404803;28;20230;-68
2023/08/04 05:28:27;;;;;;;3.30;2.55;;;13.60;99.90;;;14.38;100.00;97451.84;10408385;28;20230;-67
2023/08/04 05:33:33;;;;;;;2.40;2.17;;;13.60;99.90;;;14.59;99.14;97455.22;10403431;28;20771;-69
2023/08/04 05:38:36;;;;;;;2.92;2.70;;;13.70;99.90;;;14.51;99.07;97460.91;10405102;28;20225;-68
2023/08/04 05:43:40;;;;;;;3.65;2.90;;;13.70;99.90;;;14.72;98.96;97461.66;10411756;28;20502;-68
2023/08/04 05:48:43;;;;;;;2.45;2.33;;;13.90;99.90;;;14.73;98.76;97460.81;10410108;28;20751;-67
2023/08/04 05:53:46;;;;;;;3.88;2.95;;;13.90;99.90;;;14.83;100.00;97455.19;10408035;28;20321;-69
2023/08/04 05:58:51;;;;;;;3.80;2.40;;;14.00;99.90;;;14.77;100.00;97451.53;10401982;28;20214;-68
2023/08/04 06:03:54;;;;;;;2.75;2.55;;;14.00;99.90;;;15.06;100.00;97455.06;10407122;28;20745;-69
2023/08/04 06:08:57;;;;;;;3.97;3.00;;;14.30;99.90;;;15.13;97.78;97458.72;10410453;28;20222;-68
2023/08/04 06:14:02;;;;;;;3.25;2.60;;;14.30;99.90;;;15.47;98.30;97455.53;10400888;28;20229;-68
2023/08/04 06:19:05;;;;;;;2.50;2.30;;;14.60;99.90;;;15.93;98.55;97454.38;10412390;28;20226;-69
2023/08/04 06:24:09;;;;;;;3.13;1.92;;;15.10;99.90;;;16.64;97.22;97455.50;10416183;28;20320;-68
2023/08/04 06:29:13;;;;;;;3.35;1.73;;;15.80;99.90;;;17.67;87.58;97452.91;10410602;28;20328;-68
2023/08/04 06:34:17;;;;;;;3.00;2.20;;;16.70;99.90;;;19.18;81.79;97446.44;10405965;28;20233;-69
2023/08/04 06:39:22;;;;;;;2.53;1.60;;;17.90;99.90;;;20.77;72.77;97445.13;10402804;28;20236;-68
2023/08/04 06:44:26;;;;;;;2.05;1.80;;;19.10;99.90;;;22.14;64.14;97448.78;10397783;28;20237;-69
2023/08/04 06:49:29;;;;;;;2.25;1.90;;;20.20;99.90;;;23.32;57.34;97450.00;10394220;28;20229;-69
2023/08/04 06:54:32;;;;;;;3.20;1.75;;;21.70;99.90;;;22.81;58.94;97463.81;10402541;28;20237;-66
2023/08/04 06:59:37;;;;;;;3.03;2.13;;;20.50;99.90;;;21.95;60.89;97460.84;10405084;28;20233;-67
2023/08/04 07:04:40;;;;;;;3.53;1.80;;;20.00;99.90;;;21.74;62.81;97456.34;10396951;28;20229;-70
2023/08/04 07:09:44;;;;;;;2.85;1.50;;;19.80;99.90;;;21.94;60.58;97462.56;10407510;28;20225;-67
2023/08/04 07:14:48;;;;;;;2.80;1.70;;;20.00;99.90;;;22.22;61.88;97457.53;10408164;28;20322;-68
2023/08/04 07:19:52;;;;;;;2.03;1.70;;;20.40;99.90;;;23.01;57.52;97462.16;10397938;28;20226;-67
2023/08/04 07:24:55;;;;;;;1.52;1.40;;;21.40;99.90;;;24.03;54.72;97462.97;10390280;28;20229;-69
2023/08/04 07:30:00;;;;;;;1.58;1.48;;;22.10;99.90;;;24.08;53.65;97476.03;10396578;28;20644;-66
2023/08/04 07:35:03;;;;;;;1.05;0.98;;;22.20;99.90;;;23.96;54.38;97475.19;10389391;28;20225;-66
2023/08/04 07:40:08;;;;;;;2.40;1.13;;;22.00;99.90;;;24.45;52.03;97459.38;10396263;28;20239;-66
2023/08/04 07:45:12;;;;;;;1.20;1.10;;;22.60;99.90;;;25.37;49.65;97461.44;10389566;28;20236;-66
2023/08/04 07:50:15;;;;;;;1.63;1.02;;;23.00;99.90;;;26.66;46.43;97456.63;10394153;28;20232;-66
2023/08/04 07:55:19;;;;;;;1.83;1.30;;;24.10;99.90;;;25.46;46.71;97460.47;10395076;28;20268;-66
2023/08/04 08:00:23;;;;;;;1.35;1.10;;;23.40;98.80;;;26.70;46.42;97466.19;10391905;28;20232;-65
2023/08/04 08:05:27;;;;;;;1.27;0.90;;;23.70;99.90;;;26.90;45.19;97464.16;10390079;28;20240;-66
2023/08/04 08:10:30;;;;;;;1.73;1.05;;;24.20;98.50;;;26.84;45.29;97464.25;10393772;28;20225;-66
2023/08/04 08:15:35;;;;;;;1.08;0.82;;;24.40;98.20;;;26.29;46.45;97455.28;10402718;28;20724;-66
2023/08/04 08:20:41;;;;;;;1.15;0.95;;;24.30;97.70;;;25.68;46.24;97462.91;10401121;28;20238;-66
2023/08/04 08:25:44;;;;;;;2.20;1.30;;;23.70;96.90;;;25.46;48.16;97449.16;10400044;28;20229;-65
2023/08/04 08:30:48;;;;;;;1.38;0.88;;;23.70;98.50;;;25.52;48.51;97455.19;10405548;28;20224;-65
2023/08/04 08:35:52;;;;;;;1.92;1.20;;;24.00;98.30;;;25.57;46.69;97442.94;10396057;28;20233;-65
2023/08/04 08:40:55;;;;;;;1.38;1.00;;;24.50;96.70;;;25.58;48.71;97442.06;10398398;28;20240;-67
2023/08/04 08:46:00;;;;;;;1.90;1.10;;;24.20;97.80;;;26.36;44.80;97458.72;10396328;28;20236;-66
2023/08/04 08:51:08;;;;;;;1.65;1.17;;;25.20;95.00;;;26.93;43.68;97464.09;10399895;28;20300;-67
2023/08/04 08:56:12;;;;;;;0.93;0.88;;;25.90;94.00;;;26.88;43.85;97460.69;10396024;28;20228;-67
2023/08/04 09:01:17;;;;;;;1.77;1.05;;;25.60;93.70;;;26.68;45.43;97460.94;10394736;28;20222;-67
2023/08/04 09:06:22;;;;;;;1.92;1.05;;;25.60;94.40;;;26.71;45.79;97460.06;10396210;28;20315;-67
2023/08/04 09:11:25;;;;;;;1.52;1.00;;;25.70;94.90;;;26.74;44.98;97457.38;10397651;28;20314;-67
2023/08/04 09:16:36;;;;;;;1.10;1.00;;;25.70;93.80;;;26.93;44.30;97453.63;10396217;28;20217;-66
2023/08/04 09:21:39;;;;;;;1.63;1.02;;;26.30;93.10;;;26.58;45.20;97443.59;10402316;28;20240;-67
2023/08/04 09:26:44;;;;;;;1.10;1.00;;;25.70;93.90;;;26.86;44.69;97451.09;10397324;28;20233;-67
2023/08/04 09:31:49;;;;;;;2.25;1.20;;;26.00;92.90;;;26.80;44.04;97441.56;10402235;28;20234;-67
2023/08/04 09:36:53;;;;;;;1.65;1.10;;;25.80;92.60;;;26.33;45.81;97450.91;10392827;28;20220;-67
2023/08/04 09:41:58;;;;;;;1.35;1.02;;;25.30;93.70;;;25.68;45.59;97434.13;10398746;28;20229;-67
2023/08/04 09:47:06;;;;;;;1.98;1.20;;;24.30;94.20;;;25.13;47.10;97430.22;10400898;28;20221;-68
2023/08/04 09:52:09;;;;;;;2.92;1.17;;;24.00;95.20;;;25.01;47.83;97425.94;10400844;28;20235;-68
2023/08/04 09:57:14;;;;;;;2.13;1.20;;;23.60;95.80;;;24.88;48.45;97419.06;10398595;28;20239;-67
2023/08/04 10:02:19;;;;;;;1.70;0.82;;;23.60;96.10;;;25.40;48.26;97416.91;10392552;28;20233;-66
2023/08/04 10:07:23;;;;;;;0.90;0.90;;;24.50;95.50;;;24.85;45.44;97413.84;10396040;28;20304;-68
2023/08/04 10:12:27;;;;;;;1.23;1.13;;;24.30;92.60;;;25.29;45.64;97410.91;10392047;28;20240;-68
2023/08/04 10:17:32;;;;;;;1.17;1.10;;;24.50;93.40;;;25.53;46.26;97412.44;10396581;28;20741;-68
2023/08/04 10:22:36;;;;;;;1.42;0.93;;;24.70;94.00;;;25.65;45.36;97416.69;10401705;28;20271;-68
2023/08/04 10:27:47;;;;;;;1.38;1.08;;;24.90;92.90;;;25.03;45.89;97412.84;10411735;28;20225;-68
2023/08/04 10:32:51;;;;;;;1.35;0.98;;;24.50;93.30;;;25.79;44.73;97421.78;10421861;28;20312;-68
2023/08/04 10:38:02;;;;;;;1.10;0.90;;;25.00;92.60;;;25.84;45.89;97425.28;10406260;28;20229;-68
2023/08/04 10:43:08;;;;;;;2.50;1.05;;;25.00;93.30;;;25.26;46.70;97436.22;10404644;28;20229;-68
2023/08/04 10:48:15;;;;;;;1.00;0.90;;;24.30;94.20;;;25.13;47.03;97436.31;10403004;28;20351;-68
2023/08/04 10:53:19;;;;;;;1.58;1.02;;;24.00;94.90;;;24.91;48.24;97432.97;10411030;28;20799;-68
2023/08/04 10:58:23;;;;;;;1.67;1.10;;;23.90;95.10;;;24.82;47.82;97440.88;10414023;28;20578;-67
2023/08/04 11:03:33;;;;;;;1.67;1.00;;;23.60;94.90;;;25.21;47.92;97433.66;10406747;28;20276;-68
2023/08/04 11:08:36;;;;;;;1.55;1.05;;;24.00;95.40;;;25.33;47.24;97437.94;10395679;28;20228;-69
2023/08/04 11:13:40;;;;;;;1.85;1.30;;;24.40;94.40;;;25.38;45.73;97438.72;10401858;28;20225;-68
2023/08/04 11:18:45;;;;;;;2.28;1.10;;;24.50;93.10;;;25.37;46.26;97440.50;10401880;28;20225;-68
2023/08/04 11:23:49;;;;;;;1.92;1.13;;;24.40;93.60;;;25.56;47.52;97459.53;10409048;28;20240;-68
2023/08/04 11:28:57;;;;;;;1.70;1.10;;;24.40;94.70;;;25.96;46.62;97447.84;10405459;28;20221;-68
2023/08/04 11:34:02;;;;;;;1.65;1.08;;;24.80;94.20;;;25.79;45.02;97448.84;10399739;28;20229;-68
2023/08/04 11:39:05;;;;;;;1.10;0.95;;;24.70;92.90;;;25.90;44.97;97454.00;10403452;28;20249;-68
2023/08/04 11:44:10;;;;;;;1.73;1.10;;;24.50;93.30;;;25.76;46.01;97459.34;10405465;28;20240;-68
2023/08/04 11:49:15;;;;;;;1.10;1.00;;;24.30;94.30;;;25.29;46.99;97467.59;10405614;28;20229;-69
2023/08/04 11:54:21;;;;;;;1.45;1.10;;;24.00;94.70;;;24.99;47.70;97461.69;10403831;28;20235;-67
2023/08/04 11:59:25;;;;;;;2.10;1.10;;;23.70;94.70;;;24.83;49.65;97460.03;10396612;28;20228;-68
2023/08/04 12:04:29;;;;;;;1.20;1.10;;;23.50;96.20;;;24.75;49.33;97464.44;10400403;28;21069;-68
2023/08/04 12:09:34;;;;;;;1.85;1.08;;;23.50;96.40;;;24.62;50.11;97459.28;10411384;28;20602;-68
2023/08/04 12:14:37;;;;;;;1.30;1.10;;;23.30;97.20;;;24.37;51.79;97450.66;10395737;28;20228;-69
2023/08/04 12:20:04;;;;;;;1.73;1.10;;;23.20;97.70;;;24.50;51.11;97451.50;10400639;28;20264;-68
2023/08/04 12:25:09;;;;;;;1.20;1.10;;;23.30;97.80;;;24.30;52.78;97461.16;10404924;28;20233;-69
2023/08/04 12:30:13;;;;;;;2.10;1.20;;;23.10;98.60;;;24.05;54.38;97469.06;10394269;28;20576;-68
2023/08/04 12:35:18;;;;;;;1.30;1.20;;;22.90;99.90;;;23.83;53.08;97476.91;10397855;28;20358;-69
2023/08/04 12:40:21;;;;;;;2.30;1.30;;;22.70;98.70;;;23.38;56.87;97496.94;10400255;28;20679;-68
2023/08/04 12:45:24;;;;;;;2.00;1.42;;;22.20;99.90;;;22.37;74.80;97503.59;10404766;28;20610;-68
2023/08/04 12:50:29;;;;;;;2.53;1.40;;;21.60;99.90;;;21.50;85.60;97509.09;10398800;28;20230;-68
2023/08/04 12:55:32;;;;;;;3.95;1.95;;;21.00;99.90;;;21.03;95.98;97502.56;10405196;28;20316;-68
2023/08/04 13:00:35;;;;;;;1.98;1.75;;;20.50;99.90;;;20.84;95.93;97496.31;10419286;28;20257;-69
2023/08/04 13:05:40;;;;;;;2.22;1.80;;;20.30;99.90;;;20.79;97.75;97495.38;10414978;28;20258;-68
2023/08/04 13:10:43;;;;;;;2.60;1.60;;;20.30;99.90;;;20.91;98.77;97492.03;10424635;28;20225;-68
2023/08/04 13:15:48;;;;;;;2.47;1.85;;;20.50;99.90;;;20.98;95.72;97491.25;10424570;28;20700;-67
2023/08/04 13:20:52;;;;;;;2.45;1.85;;;20.50;99.90;;;21.17;93.18;97481.03;10417915;28;20226;-68
2023/08/04 13:25:55;;;;;;;3.03;1.60;;;20.60;99.90;;;21.40;91.13;97494.25;10415644;28;20226;-68
2023/08/04 13:31:02;;;;;;;3.58;2.42;;;20.80;99.90;;;21.63;92.56;97490.09;10415632;28;20929;-67
2023/08/04 13:36:06;;;;;;;2.75;1.70;;;21.00;99.90;;;21.81;90.87;97505.00;10413298;28;20282;-67
2023/08/04 13:41:09;;;;;;;2.35;1.70;;;21.20;99.90;;;21.88;89.80;97505.91;10426986;28;20243;-68
2023/08/04 13:46:13;;;;;;;1.67;1.20;;;21.10;99.90;;;21.48;89.24;97523.81;10410985;28;20241;-68
2023/08/04 13:51:18;;;;;;;3.80;1.30;;;20.80;99.90;;;21.41;89.60;97520.28;10416047;28;20357;-68
2023/08/04 13:56:29;;;;;;;1.38;1.27;;;20.70;99.90;;;21.24;91.90;97527.03;10411063;28;20360;-67
2023/08/04 14:01:32;;;;;;;1.92;1.40;;;20.60;99.90;;;21.44;88.73;97532.44;10413459;28;20312;-66
2023/08/04 14:06:37;;;;;;;1.73;1.20;;;20.70;99.90;;;21.40;87.68;97526.31;10411789;28;20399;-66
2023/08/04 14:11:40;;;;;;;3.50;1.30;;;20.60;99.90;;;21.55;83.62;97516.06;10422239;28;20230;-67
2023/08/04 14:16:43;;;;;;;1.60;1.10;;;20.80;99.90;;;21.67;80.31;97504.03;10400996;28;20707;-67
2023/08/04 14:21:47;;;;;;;2.50;1.60;;;20.80;99.90;;;21.64;81.83;97519.59;10401897;28;20239;-66
2023/08/04 14:26:51;;;;;;;2.00;1.63;;;20.90;99.90;;;21.73;80.72;97530.09;10410468;28;20553;-66
2023/08/04 14:31:54;;;;;;;1.55;1.30;;;20.90;99.90;;;21.84;80.77;97520.63;10405773;28;20231;-66
2023/08/04 14:36:59;;;;;;;1.45;1.25;;;21.00;99.90;;;21.81;80.21;97523.22;10399103;28;20780;-69
2023/08/04 14:42:02;;;;;;;1.35;1.25;;;21.00;99.90;;;22.04;77.37;97525.97;10406944;28;20304;-66
2023/08/04 14:47:06;;;;;;;2.08;1.20;;;21.10;99.90;;;22.14;71.81;97514.72;10397263;28;20716;-66
2023/08/04 14:52:11;;;;;;;1.40;1.30;;;21.00;99.90;;;22.06;73.79;97503.38;10396531;28;20234;-66
2023/08/04 14:57:14;;;;;;;2.15;1.17;;;21.00;99.90;;;21.88;76.71;97527.56;10401349;28;20308;-65
2023/08/04 15:02:17;;;;;;;1.50;1.33;;;20.80;99.90;;;22.02;74.30;97525.06;10402298;28;20240;-66
2023/08/04 15:07:22;;;;;;;1.35;1.25;;;20.90;99.90;;;21.96;74.87;97501.63;10402708;28;20229;-65
2023/08/04 15:12:25;;;;;;;1.85;1.30;;;20.90;99.90;;;21.96;74.32;97505.09;10403693;28;20238;-67
2023/08/04 15:17:29;;;;;;;1.40;1.00;;;20.90;99.90;;;22.04;72.41;97507.75;10401011;28;20226;-66
2023/08/04 15:22:34;;;;;;;1.85;1.30;;;21.00;99.90;;;22.13;73.79;97504.31;10397586;28;20244;-66
2023/08/04 15:27:38;;;;;;;1.80;1.10;;;21.00;99.90;;;22.05;74.47;97497.31;10393386;28;20253;-68
2023/08/04 15:32:42;;;;;;;1.40;1.20;;;20.90;99.90;;;21.97;77.38;97504.22;10390938;28;20236;-68
2023/08/04 15:37:46;;;;;;;1.60;1.30;;;20.90;99.90;;;21.90;77.72;97512.84;10390508;28;20796;-68
2023/08/04 15:42:50;;;;;;;1.77;1.67;;;20.90;99.90;;;21.78;75.07;97526.66;10402134;28;20230;-66
2023/08/04 15:47:53;;;;;;;1.77;1.40;;;20.80;99.90;;;21.84;75.13;97523.22;10401011;28;20225;-66
2023/08/04 15:52:57;;;;;;;1.50;1.50;;;20.70;99.90;;;22.01;72.35;97529.41;10412321;28;20579;-67
2023/08/04 15:58:01;;;;;;;1.50;1.40;;;20.90;99.90;;;21.88;73.19;97530.19;10403489;28;20229;-67
2023/08/04 16:03:04;;;;;;;1.85;1.75;;;20.80;99.90;;;21.87;72.24;97527.59;10375915;28;20229;-68
2023/08/04 16:08:08;;;;;;;1.88;1.77;;;20.80;99.90;;;21.88;74.35;97522.38;10387787;28;20702;-68
2023/08/04 16:13:12;;;;;;;1.80;1.70;;;20.80;99.90;;;21.66;74.19;97523.97;10388429;28;20671;-68
2023/08/04 16:18:15;;;;;;;2.50;2.08;;;20.70;99.90;;;21.62;75.50;97532.59;10386620;28;20225;-68
2023/08/04 16:23:19;;;;;;;1.75;1.65;;;20.60;99.90;;;21.66;75.63;97549.97;10383738;28;20230;-68
2023/08/04 16:28:22;;;;;;;1.88;1.77;;;20.60;99.90;;;21.69;75.75;97572.53;10386046;28;20230;-68
2023/08/04 16:33:26;;;;;;;1.80;1.65;;;20.50;99.90;;;21.62;75.45;97584.63;10397928;28;20724;-67
2023/08/04 16:38:31;;;;;;;1.77;1.67;;;20.50;99.90;;;21.43;77.15;97588.75;10395237;28;20709;-68
2023/08/04 16:43:34;;;;;;;2.90;1.65;;;20.40;99.90;;;21.35;78.46;97585.22;10393252;28;20241;-68
2023/08/04 16:48:37;;;;;;;2.25;1.58;;;20.30;99.90;;;21.38;77.60;97584.41;10422319;28;20319;-68
2023/08/04 16:53:42;;;;;;;2.05;1.70;;;20.40;99.90;;;21.33;78.99;97586.91;10405199;28;20226;-67
2023/08/04 16:58:45;;;;;;;1.67;1.58;;;20.40;99.90;;;21.48;76.99;97576.69;10399088;28;20226;-68
2023/08/04 17:03:48;;;;;;;1.70;1.60;;;20.50;99.90;;;21.51;77.27;97597.53;10394958;28;20226;-68
2023/08/04 17:08:54;;;;;;;1.73;1.60;;;20.50;99.90;;;21.63;76.06;97590.69;10396740;28;20256;-68
2023/08/04 17:13:57;;;;;;;1.50;1.40;;;20.50;99.90;;;21.49;75.86;97588.84;10415149;28;20233;-68
2023/08/04 17:19:00;;;;;;;1.70;1.60;;;20.50;99.90;;;21.57;74.86;97592.38;10402566;28;20244;-68
2023/08/04 17:24:05;;;;;;;1.50;1.40;;;20.50;99.90;;;21.41;74.42;97606.09;10403545;28;20229;-68
2023/08/04 17:29:08;;;;;;;1.73;1.40;;;20.40;99.90;;;21.35;75.32;97613.81;10380743;28;20233;-68
2023/08/04 17:34:11;;;;;;;1.60;1.50;;;20.40;99.90;;;21.33;74.24;97610.31;10395636;28;20800;-68
2023/08/04 17:39:16;;;;;;;1.48;1.38;;;20.30;99.90;;;21.07;76.09;97615.22;10399376;28;20226;-68
2023/08/04 17:44:20;;;;;;;1.63;1.52;;;20.10;99.90;;;21.03;77.23;97621.22;10394968;28;20237;-67
2023/08/04 17:49:25;;;;;;;2.05;1.70;;;19.90;99.90;;;20.84;77.96;97622.75;10400659;28;20237;-68
2023/08/04 17:54:29;;;;;;;2.03;1.92;;;19.80;99.90;;;20.73;80.16;97627.81;10399068;28;20225;-68
2023/08/04 17:59:32;;;;;;;2.10;2.00;;;19.80;99.90;;;20.98;79.23;97625.53;10393626;28;20328;-68
2023/08/04 18:04:36;;;;;;;2.05;1.90;;;19.90;99.90;;;20.91;79.60;97624.56;10404120;28;20232;-68
2023/08/04 18:09:40;;;;;;;1.70;1.60;;;19.90;99.90;;;20.82;81.33;97635.72;10400224;28;20553;-68
2023/08/04 18:14:43;;;;;;;2.47;1.60;;;19.90;99.90;;;20.84;80.76;97638.34;10392413;28;20233;-68
2023/08/04 18:19:46;;;;;;;1.80;1.70;;;19.80;99.90;;;20.69;82.33;97650.28;10394748;28;20751;-68
2023/08/04 18:24:51;;;;;;;1.90;1.80;;;19.70;99.90;;;20.56;84.80;97650.94;10385425;28;20643;-68
2023/08/04 18:29:54;;;;;;;1.95;1.80;;;19.60;99.90;;;20.48;84.47;97663.78;10403617;28;20233;-67
2023/08/04 18:34:57;;;;;;;1.80;1.70;;;19.50;99.90;;;20.38;85.58;97663.63;10395657;28;20233;-68
2023/08/04 18:40:04;;;;;;;2.10;2.00;;;19.40;99.90;;;20.35;86.48;97681.75;10406625;28;20232;-68
2023/08/04 18:45:10;;;;;;;2.15;2.00;;;19.40;99.90;;;20.42;86.06;97686.19;10404370;28;20232;-68
2023/08/04 18:50:13;;;;;;;2.10;1.95;;;19.30;99.90;;;20.28;87.37;97698.06;10386848;28;20637;-68
2023/08/04 18:55:18;;;;;;;2.25;2.13;;;19.20;99.90;;;20.11;87.99;97705.56;10396594;28;20713;-68
2023/08/04 19:00:24;;;;;;;2.20;2.10;;;19.10;99.90;;;20.10;88.10;97709.03;10390784;28;20229;-68
2023/08/04 19:05:27;;;;;;;2.78;2.50;;;19.10;99.90;;;19.80;86.18;97716.31;10392939;28;20244;-69
2023/08/04 19:10:31;;;;;;;3.03;2.83;;;18.90;99.90;;;19.38;87.78;97710.28;10391990;28;20225;-68
2023/08/04 19:15:35;;;;;;;3.13;2.92;;;18.60;99.90;;;18.90;93.37;97722.22;10395175;28;20720;-68
2023/08/04 19:20:38;;;;;;;3.90;3.60;;;18.30;99.90;;;18.72;100.00;97725.25;10395123;28;20225;-68
2023/08/04 19:25:42;;;;;;;4.38;3.97;;;18.10;99.90;;;18.46;100.00;97730.69;10396464;28;20226;-67
2023/08/04 19:30:45;;;;;;;4.03;3.72;;;17.90;99.90;;;18.36;100.00;97744.22;10394202;28;20230;-67
2023/08/04 19:35:49;;;;;;;3.72;3.42;;;17.70;99.90;;;18.20;100.00;97742.13;10393251;28;20275;-68
2023/08/04 19:40:54;;;;;;;4.20;3.90;;;17.60;99.90;;;18.04;100.00;97742.56;10391731;28;20891;-67
2023/08/04 19:46:02;;;;;;;3.80;3.50;;;17.50;99.90;;;17.91;100.00;97755.19;10390718;28;20957;-66
2023/08/04 19:51:12;;;;;;;4.07;3.72;;;17.40;99.90;;;17.83;100.00;97764.44;10394229;28;20240;-68
2023/08/04 19:56:16;;;;;;;4.60;4.18;;;17.40;99.90;;;17.81;100.00;97768.69;10386879;28;20671;-67
2023/08/04 20:01:19;;;;;;;4.07;3.67;;;17.30;99.90;;;17.84;100.00;97763.59;10386649;28;20230;-67
2023/08/04 20:06:22;;;;;;;4.30;4.00;;;17.30;99.90;;;17.91;100.00;97775.88;10389916;28;20388;-67
2023/08/04 20:11:27;;;;;;;4.30;3.92;;;17.30;99.90;;;17.87;100.00;97773.16;10390924;28;20229;-67
2023/08/04 20:16:30;;;;;;;4.07;3.78;;;17.30;99.90;;;17.87;100.00;97779.19;10397823;28;20221;-67
2023/08/04 20:21:33;;;;;;;4.00;3.70;;;17.30;99.90;;;17.86;100.00;97777.44;10401628;28;20237;-67
2023/08/04 20:26:38;;;;;;;4.63;3.75;;;17.30;99.90;;;17.90;100.00;97774.09;10398699;28;20236;-67
2023/08/04 20:31:41;;;;;;;4.13;3.67;;;17.30;99.90;;;17.96;100.00;97776.84;10402554;28;20613;-67
2023/08/04 20:36:44;;;;;;;4.85;4.45;;;17.30;99.90;;;17.95;100.00;97777.69;10406801;28;20224;-66
2023/08/04 20:41:48;;;;;;;4.15;3.78;;;17.30;99.90;;;17.96;100.00;97776.84;10401703;28;20716;-68
2023/08/04 20:46:51;;;;;;;4.47;4.00;;;17.30;99.90;;;17.74;100.00;97783.13;10399413;28;20229;-67
2023/08/04 20:51:55;;;;;;;4.53;4.20;;;17.10;99.90;;;17.75;100.00;97791.75;10405184;28;20320;-67
2023/08/04 20:56:59;;;;;;;4.65;4.25;;;17.10;99.90;;;17.68;100.00;97808.78;10400268;28;20233;-68
2023/08/04 21:02:02;;;;;;;4.45;4.15;;;17.10;99.90;;;17.66;100.00;97820.81;10404765;28;20236;-69